createdAt,value
2023-03-30T00:02:47.352Z,2.25
2023-03-30T00:07:49.018Z,2.15
2023-03-30T00:12:50.909Z,2.78
2023-03-30T00:17:52.424Z,2.85
2023-03-30T00:22:54.007Z,2.30
2023-03-30T00:27:55.534Z,2.03
2023-03-30T00:32:57.040Z,3.33
2023-03-30T00:37:59.528Z,2.33
2023-03-30T00:43:03.535Z,1.92
2023-03-30T00:48:11.520Z,1.83
2023-03-30T00:53:17.054Z,2.15
2023-03-30T00:58:21.184Z,2.20
2023-03-30T01:03:31.378Z,2.67
2023-03-30T01:08:34.531Z,1.95
2023-03-30T01:13:39.691Z,2.40
2023-03-30T01:19:13.501Z,2.92
2023-03-30T01:24:51.793Z,2.28
2023-03-30T01:30:30.202Z,2.13
2023-03-30T01:36:03.313Z,2.75
2023-03-30T01:41:14.638Z,4.40
2023-03-30T01:46:23.619Z,2.35
2023-03-30T01:51:32.560Z,2.17
2023-03-30T01:56:55.019Z,1.80
2023-03-30T02:02:00.480Z,2.05
2023-03-30T02:07:15.369Z,2.30
2023-03-30T02:12:18.266Z,2.10
2023-03-30T02:17:23.470Z,2.65
2023-03-30T02:22:27.191Z,2.47
2023-03-30T02:27:29.375Z,3.28
2023-03-30T02:32:41.836Z,2.20
2023-03-30T02:38:17.371Z,2.13
2023-03-30T02:43:38.256Z,3.08
2023-03-30T02:48:44.959Z,2.70
2023-03-30T02:53:52.926Z,2.58
2023-03-30T02:59:19.712Z,1.85
2023-03-30T03:04:23.674Z,3.65
2023-03-30T03:09:46.100Z,2.83
2023-03-30T03:14:48.130Z,3.22
2023-03-30T03:19:49.851Z,3.65
2023-03-30T03:24:53.660Z,3.00
2023-03-30T03:30:04.856Z,2.97
2023-03-30T03:35:13.178Z,2.40
2023-03-30T03:40:15.127Z,2.63
2023-03-30T03:45:16.879Z,3.17
2023-03-30T03:50:26.592Z,2.20
2023-03-30T03:55:28.710Z,2.30
2023-03-30T04:00:30.669Z,2.33
2023-03-30T04:05:32.306Z,2.60
2023-03-30T04:10:33.982Z,2.47
2023-03-30T04:15:53.137Z,3.10
2023-03-30T04:21:13.152Z,3.53
2023-03-30T04:26:34.259Z,3.00
2023-03-30T04:31:56.091Z,2.78
2023-03-30T04:37:18.658Z,2.70
2023-03-30T04:42:39.505Z,2.00
2023-03-30T04:47:52.721Z,2.55
2023-03-30T04:53:26.238Z,1.92
2023-03-30T04:58:47.292Z,2.20
2023-03-30T05:03:59.004Z,2.88
2023-03-30T05:09:21.580Z,2.55
2023-03-30T05:14:52.775Z,1.90
2023-03-30T05:20:23.652Z,1.98
2023-03-30T05:25:56.418Z,1.77
2023-03-30T05:31:06.886Z,1.98
2023-03-30T05:36:18.922Z,1.85
2023-03-30T05:41:34.389Z,2.15
2023-03-30T05:46:55.826Z,3.47
2023-03-30T05:52:03.599Z,3.28
2023-03-30T05:57:29.717Z,2.60
2023-03-30T06:02:47.099Z,1.98
2023-03-30T06:07:52.970Z,2.15
2023-03-30T06:12:54.545Z,2.92
2023-03-30T06:23:24.435Z,2.80
2023-03-30T06:28:29.457Z,3.45
2023-03-30T06:33:31.059Z,3.10
2023-03-30T06:38:35.923Z,5.75
2023-03-30T06:43:38.237Z,3.03
2023-03-30T06:48:48.434Z,3.38
2023-03-30T06:59:11.613Z,3.08
2023-03-30T07:04:33.164Z,2.47
2023-03-30T07:09:46.951Z,3.35
2023-03-30T07:14:48.939Z,3.10
2023-03-30T07:19:51.171Z,2.70
2023-03-30T07:24:52.991Z,3.30
2023-03-30T07:29:55.225Z,2.90
2023-03-30T07:34:57.024Z,2.17
2023-03-30T07:40:00.515Z,2.60
2023-03-30T07:45:03.625Z,2.50
2023-03-30T07:50:05.920Z,3.97
2023-03-30T07:55:08.736Z,3.80
2023-03-30T08:05:42.436Z,3.25
2023-03-30T08:10:53.756Z,4.65
2023-03-30T08:15:56.143Z,3.63
2023-03-30T08:20:57.680Z,4.05
2023-03-30T08:26:00.298Z,3.08
2023-03-30T08:31:06.672Z,2.65
2023-03-30T08:36:08.543Z,3.40
2023-03-30T08:41:24.660Z,2.38
2023-03-30T08:46:27.107Z,2.40
2023-03-30T08:51:32.601Z,2.90
2023-03-30T08:56:42.874Z,2.75
2023-03-30T09:02:15.296Z,3.58
2023-03-30T09:07:23.144Z,3.33
2023-03-30T09:12:38.866Z,2.85
2023-03-30T09:17:55.939Z,2.75
2023-03-30T09:23:00.204Z,3.15
2023-03-30T09:28:31.006Z,2.20
2023-03-30T09:33:44.916Z,2.40
2023-03-30T09:38:46.395Z,3.08
2023-03-30T09:43:49.726Z,3.20
2023-03-30T09:48:51.590Z,2.35
2023-03-30T09:54:02.550Z,3.65
2023-03-30T09:59:28.853Z,4.35
2023-03-30T10:04:30.372Z,3.10
2023-03-30T10:09:31.957Z,2.88
2023-03-30T10:14:37.220Z,2.92
2023-03-30T10:19:45.851Z,3.08
2023-03-30T10:24:52.309Z,2.72
2023-03-30T10:29:53.942Z,2.70
2023-03-30T10:34:59.544Z,3.25
2023-03-30T10:40:09.249Z,3.05
2023-03-30T10:45:20.769Z,4.43
2023-03-30T10:50:31.302Z,4.20
2023-03-30T10:55:47.704Z,4.25
2023-03-30T11:01:03.123Z,4.03
2023-03-30T11:06:16.852Z,3.25
2023-03-30T11:11:22.506Z,3.25
2023-03-30T11:16:35.308Z,2.83
2023-03-30T11:21:46.709Z,2.58
2023-03-30T11:27:09.934Z,2.42
2023-03-30T11:32:16.718Z,2.78
2023-03-30T11:37:28.421Z,2.33
2023-03-30T11:42:32.797Z,2.55
2023-03-30T11:47:55.967Z,2.50
2023-03-30T11:53:21.281Z,3.20
2023-03-30T11:58:36.101Z,2.53
2023-03-30T12:03:47.241Z,3.40
2023-03-30T12:09:00.124Z,2.35
2023-03-30T12:14:02.384Z,3.08
2023-03-30T12:19:23.253Z,2.78
2023-03-30T12:24:44.076Z,2.05
2023-03-30T12:30:01.550Z,2.42
2023-03-30T12:35:45.745Z,2.10
2023-03-30T12:41:07.597Z,2.30
2023-03-30T12:46:19.556Z,2.72
2023-03-30T12:51:45.966Z,1.98
2023-03-30T12:56:59.788Z,2.58
2023-03-30T13:02:38.783Z,3.20
2023-03-30T13:07:41.466Z,3.20
2023-03-30T13:12:43.212Z,3.30
2023-03-30T13:17:56.654Z,4.05
2023-03-30T13:22:59.596Z,4.30
2023-03-30T13:28:38.980Z,3.13
2023-03-30T13:33:45.690Z,3.60
2023-03-30T13:38:59.150Z,4.20
2023-03-30T13:44:35.914Z,4.47
2023-03-30T13:49:43.094Z,4.07
2023-03-30T13:54:46.321Z,4.63
2023-03-30T14:00:08.591Z,4.25
2023-03-30T14:05:18.402Z,4.15
2023-03-30T14:10:20.893Z,3.17
2023-03-30T14:15:34.805Z,3.28
2023-03-30T14:20:50.493Z,3.00
2023-03-30T14:25:59.590Z,3.50
2023-03-30T14:31:04.747Z,3.20
2023-03-30T14:36:07.548Z,3.38
2023-03-30T14:41:25.359Z,3.00
2023-03-30T14:46:46.773Z,2.92
2023-03-30T14:51:50.523Z,2.78
2023-03-30T14:57:00.312Z,3.10
2023-03-30T15:02:03.467Z,3.85
2023-03-30T15:07:05.155Z,4.22
2023-03-30T15:12:06.980Z,2.38
2023-03-30T15:17:13.401Z,3.10
2023-03-30T15:22:31.938Z,3.38
2023-03-30T15:27:36.854Z,3.17
2023-03-30T15:32:39.781Z,2.60
2023-03-30T15:37:58.152Z,3.28
2023-03-30T15:43:20.804Z,3.10
2023-03-30T15:48:44.279Z,3.40
2023-03-30T15:54:00.775Z,6.82
2023-03-30T15:59:02.403Z,4.32
2023-03-30T16:04:05.785Z,4.10
2023-03-30T16:09:07.455Z,4.05
2023-03-30T16:14:14.126Z,3.30
2023-03-30T16:19:18.645Z,3.72
2023-03-30T16:24:20.168Z,3.65
2023-03-30T16:29:23.270Z,3.25
2023-03-30T16:34:25.634Z,2.75
2023-03-30T16:39:29.262Z,2.42
2023-03-30T16:44:30.775Z,3.00
2023-03-30T16:49:32.296Z,3.50
2023-03-30T16:54:33.784Z,3.78
2023-03-30T16:59:35.324Z,2.70
2023-03-30T17:04:36.834Z,4.00
2023-03-30T17:09:38.308Z,3.67
2023-03-30T17:14:42.033Z,3.40
2023-03-30T17:19:44.602Z,3.95
2023-03-30T17:24:46.092Z,3.22
2023-03-30T17:29:47.533Z,2.67
2023-03-30T17:34:49.096Z,2.92
2023-03-30T17:39:50.696Z,3.35
2023-03-30T17:44:52.188Z,3.00
2023-03-30T17:49:53.702Z,3.30
2023-03-30T17:54:56.991Z,3.47
2023-03-30T17:59:58.510Z,4.20
2023-03-30T18:04:59.979Z,3.40
2023-03-30T18:10:01.548Z,3.45
2023-03-30T18:15:03.214Z,3.50
2023-03-30T18:20:16.790Z,3.65
2023-03-30T18:25:29.796Z,4.05
2023-03-30T18:30:37.959Z,3.90
2023-03-30T18:35:39.572Z,4.25
2023-03-30T18:40:47.131Z,3.83
2023-03-30T18:45:50.124Z,3.72
2023-03-30T18:50:55.194Z,4.50
2023-03-30T18:55:58.684Z,4.07
2023-03-30T19:01:00.665Z,3.47
2023-03-30T19:06:02.386Z,3.28
2023-03-30T19:11:03.831Z,3.85
2023-03-30T19:16:05.742Z,3.63
2023-03-30T19:21:13.671Z,3.75
2023-03-30T19:26:15.232Z,3.78
2023-03-30T19:31:16.919Z,4.00
2023-03-30T19:36:18.479Z,3.92
2023-03-30T19:41:19.929Z,3.53
2023-03-30T19:46:21.495Z,6.28
2023-03-30T19:51:23.037Z,5.00
2023-03-30T19:56:24.507Z,4.03
2023-03-30T20:01:26.054Z,4.28
2023-03-30T20:06:27.776Z,4.55
2023-03-30T20:11:29.354Z,6.93
2023-03-30T20:16:30.885Z,5.45
2023-03-30T20:21:33.002Z,7.28
2023-03-30T20:26:35.007Z,12.02
2023-03-30T20:31:36.587Z,7.43
2023-03-30T20:36:38.817Z,6.43
2023-03-30T20:41:40.303Z,5.00
2023-03-30T20:46:41.842Z,4.07
2023-03-30T20:51:43.317Z,3.85
2023-03-30T20:56:45.317Z,4.30
2023-03-30T21:01:47.057Z,4.38
2023-03-30T21:06:48.619Z,4.15
2023-03-30T21:11:50.065Z,3.97
2023-03-30T21:16:51.604Z,3.33
2023-03-30T21:21:53.134Z,3.50
2023-03-30T21:26:54.581Z,3.80
2023-03-30T21:31:56.021Z,3.35
2023-03-30T21:36:57.647Z,3.38
2023-03-30T21:41:59.268Z,3.65
2023-03-30T21:47:00.794Z,3.35
2023-03-30T21:52:02.561Z,3.67
2023-03-30T21:57:04.221Z,3.35
2023-03-30T22:02:05.832Z,3.35
2023-03-30T22:07:07.336Z,3.80
2023-03-30T22:12:08.792Z,3.20
2023-03-30T22:17:10.293Z,3.35
2023-03-30T22:22:12.110Z,3.88
2023-03-30T22:27:16.102Z,4.97
2023-03-30T22:32:17.610Z,5.15
2023-03-30T22:37:19.076Z,4.32
2023-03-30T22:42:20.591Z,5.13
2023-03-30T22:47:22.189Z,5.53
2023-03-30T22:52:23.740Z,5.03
2023-03-30T22:57:25.342Z,5.22
2023-03-30T23:02:26.872Z,6.20
2023-03-30T23:07:28.331Z,4.47
2023-03-30T23:12:30.659Z,5.68
2023-03-30T23:17:32.245Z,5.80
2023-03-30T23:22:33.768Z,4.95
2023-03-30T23:27:35.746Z,4.85
2023-03-30T23:32:37.246Z,5.38
2023-03-30T23:37:38.792Z,5.15
2023-03-30T23:42:40.259Z,5.55
2023-03-30T23:47:42.976Z,5.60
2023-03-30T23:52:44.478Z,6.18
2023-03-30T23:57:45.984Z,6.05
